sensor_id;sensor_type;location;lat;lon;timestamp;temperature;humidity
71128;SHT30;59249;59.736;30.568;2022-12-18T00:01:57;-5.16;78.09
71128;SHT30;59249;59.736;30.568;2022-12-18T00:04:29;-5.21;78.42
71128;SHT30;59249;59.736;30.568;2022-12-18T00:07:00;-5.16;78.47
71128;SHT30;59249;59.736;30.568;2022-12-18T00:09:29;-5.18;78.42
71128;SHT30;59249;59.736;30.568;2022-12-18T00:12:08;-5.11;78.40
71128;SHT30;59249;59.736;30.568;2022-12-18T00:14:45;-5.16;78.30
71128;SHT30;59249;59.736;30.568;2022-12-18T00:17:18;-5.21;78.40
71128;SHT30;59249;59.736;30.568;2022-12-18T00:19:47;-5.23;78.42
71128;SHT30;59249;59.736;30.568;2022-12-18T00:22:25;-5.20;78.73
71128;SHT30;59249;59.736;30.568;2022-12-18T00:24:58;-5.20;78.76
71128;SHT30;59249;59.736;30.568;2022-12-18T00:27:28;-5.21;78.68
71128;SHT30;59249;59.736;30.568;2022-12-18T00:29:57;-5.18;78.65
71128;SHT30;59249;59.736;30.568;2022-12-18T00:32:26;-5.17;78.74
71128;SHT30;59249;59.736;30.568;2022-12-18T00:34:55;-5.15;78.84
71128;SHT30;59249;59.736;30.568;2022-12-18T00:37:28;-5.12;78.90
71128;SHT30;59249;59.736;30.568;2022-12-18T00:40:04;-5.14;78.64
71128;SHT30;59249;59.736;30.568;2022-12-18T00:42:40;-5.16;78.72
71128;SHT30;59249;59.736;30.568;2022-12-18T00:45:27;-5.13;78.70
71128;SHT30;59249;59.736;30.568;2022-12-18T00:47:57;-5.14;78.81
71128;SHT30;59249;59.736;30.568;2022-12-18T00:50:29;-5.13;78.86
71128;SHT30;59249;59.736;30.568;2022-12-18T00:53:02;-5.12;78.85
71128;SHT30;59249;59.736;30.568;2022-12-18T00:55:32;-5.06;78.81
71128;SHT30;59249;59.736;30.568;2022-12-18T00:58:01;-5.07;78.84
71128;SHT30;59249;59.736;30.568;2022-12-18T01:00:31;-5.04;78.89
71128;SHT30;59249;59.736;30.568;2022-12-18T01:03:00;-5.07;78.80
71128;SHT30;59249;59.736;30.568;2022-12-18T01:05:28;-5.10;79.08
71128;SHT30;59249;59.736;30.568;2022-12-18T01:07:59;-5.05;79.08
71128;SHT30;59249;59.736;30.568;2022-12-18T01:10:29;-5.11;79.18
71128;SHT30;59249;59.736;30.568;2022-12-18T01:12:58;-5.13;79.55
71128;SHT30;59249;59.736;30.568;2022-12-18T01:15:27;-5.12;79.36
71128;SHT30;59249;59.736;30.568;2022-12-18T01:17:56;-5.16;79.44
71128;SHT30;59249;59.736;30.568;2022-12-18T01:20:26;-5.17;79.29
71128;SHT30;59249;59.736;30.568;2022-12-18T01:22:55;-5.10;79.42
71128;SHT30;59249;59.736;30.568;2022-12-18T01:25:24;-5.09;79.83
71128;SHT30;59249;59.736;30.568;2022-12-18T01:27:54;-5.12;79.86
71128;SHT30;59249;59.736;30.568;2022-12-18T01:30:25;-5.15;80.14
71128;SHT30;59249;59.736;30.568;2022-12-18T01:32:55;-5.11;80.25
71128;SHT30;59249;59.736;30.568;2022-12-18T01:35:26;-5.10;79.94
71128;SHT30;59249;59.736;30.568;2022-12-18T01:37:55;-5.13;79.84
71128;SHT30;59249;59.736;30.568;2022-12-18T01:40:24;-5.10;79.68
71128;SHT30;59249;59.736;30.568;2022-12-18T01:42:55;-5.15;79.62
71128;SHT30;59249;59.736;30.568;2022-12-18T01:45:28;-5.13;79.41
71128;SHT30;59249;59.736;30.568;2022-12-18T01:48:00;-5.13;79.53
71128;SHT30;59249;59.736;30.568;2022-12-18T01:50:35;-5.11;79.48
71128;SHT30;59249;59.736;30.568;2022-12-18T01:53:13;-5.13;79.26
71128;SHT30;59249;59.736;30.568;2022-12-18T01:55:46;-5.14;79.04
71128;SHT30;59249;59.736;30.568;2022-12-18T01:58:17;-5.10;79.10
71128;SHT30;59249;59.736;30.568;2022-12-18T02:00:54;-5.13;79.00
71128;SHT30;59249;59.736;30.568;2022-12-18T02:03:23;-5.20;78.89
71128;SHT30;59249;59.736;30.568;2022-12-18T02:06:01;-5.27;79.01
71128;SHT30;59249;59.736;30.568;2022-12-18T02:08:45;-5.32;79.08
71128;SHT30;59249;59.736;30.568;2022-12-18T02:11:31;-5.31;79.23
71128;SHT30;59249;59.736;30.568;2022-12-18T02:14:18;-5.28;79.33
71128;SHT30;59249;59.736;30.568;2022-12-18T02:16:57;-5.19;79.22
71128;SHT30;59249;59.736;30.568;2022-12-18T02:19:47;-5.22;79.20
71128;SHT30;59249;59.736;30.568;2022-12-18T02:22:32;-5.26;79.20
71128;SHT30;59249;59.736;30.568;2022-12-18T02:25:26;-5.27;79.51
71128;SHT30;59249;59.736;30.568;2022-12-18T02:28:04;-5.21;79.31
71128;SHT30;59249;59.736;30.568;2022-12-18T02:30:36;-5.23;79.44
71128;SHT30;59249;59.736;30.568;2022-12-18T02:33:09;-5.28;79.41
71128;SHT30;59249;59.736;30.568;2022-12-18T02:35:41;-5.24;79.55
71128;SHT30;59249;59.736;30.568;2022-12-18T02:38:15;-5.27;79.56
71128;SHT30;59249;59.736;30.568;2022-12-18T02:40:49;-5.35;79.79
71128;SHT30;59249;59.736;30.568;2022-12-18T02:43:21;-5.32;79.86
71128;SHT30;59249;59.736;30.568;2022-12-18T02:45:54;-5.26;79.82
71128;SHT30;59249;59.736;30.568;2022-12-18T02:48:28;-5.36;79.86
71128;SHT30;59249;59.736;30.568;2022-12-18T02:51:07;-5.35;79.96
71128;SHT30;59249;59.736;30.568;2022-12-18T02:53:45;-5.35;79.94
71128;SHT30;59249;59.736;30.568;2022-12-18T02:56:22;-5.35;80.10
71128;SHT30;59249;59.736;30.568;2022-12-18T02:59:00;-5.27;80.07
71128;SHT30;59249;59.736;30.568;2022-12-18T03:01:51;-5.27;79.70
71128;SHT30;59249;59.736;30.568;2022-12-18T03:04:27;-5.27;79.83
71128;SHT30;59249;59.736;30.568;2022-12-18T03:07:11;-5.22;79.75
71128;SHT30;59249;59.736;30.568;2022-12-18T03:09:48;-5.20;79.55
71128;SHT30;59249;59.736;30.568;2022-12-18T03:12:23;-5.19;79.44
71128;SHT30;59249;59.736;30.568;2022-12-18T03:15:04;-5.19;79.32
71128;SHT30;59249;59.736;30.568;2022-12-18T03:17:49;-5.18;79.46
71128;SHT30;59249;59.736;30.568;2022-12-18T03:20:29;-5.09;79.39
71128;SHT30;59249;59.736;30.568;2022-12-18T03:23:07;-5.14;79.27
71128;SHT30;59249;59.736;30.568;2022-12-18T03:25:41;-5.16;79.10
71128;SHT30;59249;59.736;30.568;2022-12-18T03:28:19;-5.19;79.04
71128;SHT30;59249;59.736;30.568;2022-12-18T03:30:58;-5.18;79.08
71128;SHT30;59249;59.736;30.568;2022-12-18T03:33:35;-5.23;78.88
71128;SHT30;59249;59.736;30.568;2022-12-18T03:36:08;-5.28;78.70
71128;SHT30;59249;59.736;30.568;2022-12-18T03:38:38;-5.32;78.64
71128;SHT30;59249;59.736;30.568;2022-12-18T03:41:19;-5.39;78.81
71128;SHT30;59249;59.736;30.568;2022-12-18T03:44:26;-5.36;78.96
71128;SHT30;59249;59.736;30.568;2022-12-18T03:47:07;-5.37;78.86
71128;SHT30;59249;59.736;30.568;2022-12-18T03:49:45;-5.39;78.84
71128;SHT30;59249;59.736;30.568;2022-12-18T03:52:24;-5.39;78.83
71128;SHT30;59249;59.736;30.568;2022-12-18T03:54:58;-5.32;78.75
71128;SHT30;59249;59.736;30.568;2022-12-18T03:57:31;-5.34;78.76
71128;SHT30;59249;59.736;30.568;2022-12-18T04:00:07;-5.38;78.61
71128;SHT30;59249;59.736;30.568;2022-12-18T04:03:05;-5.37;78.73
71128;SHT30;59249;59.736;30.568;2022-12-18T04:05:45;-5.35;78.71
71128;SHT30;59249;59.736;30.568;2022-12-18T04:08:18;-5.42;78.71
71128;SHT30;59249;59.736;30.568;2022-12-18T04:10:57;-5.45;78.62
71128;SHT30;59249;59.736;30.568;2022-12-18T04:13:29;-5.55;78.65
71128;SHT30;59249;59.736;30.568;2022-12-18T04:16:02;-5.55;78.76
71128;SHT30;59249;59.736;30.568;2022-12-18T04:18:33;-5.50;78.74
71128;SHT30;59249;59.736;30.568;2022-12-18T04:21:03;-5.53;78.89
71128;SHT30;59249;59.736;30.568;2022-12-18T04:23:33;-5.53;78.79
71128;SHT30;59249;59.736;30.568;2022-12-18T04:26:02;-5.54;78.70
71128;SHT30;59249;59.736;30.568;2022-12-18T04:28:50;-5.53;78.70
71128;SHT30;59249;59.736;30.568;2022-12-18T04:31:18;-5.58;78.81
71128;SHT30;59249;59.736;30.568;2022-12-18T04:33:49;-5.54;78.90
71128;SHT30;59249;59.736;30.568;2022-12-18T04:36:18;-5.58;78.98
71128;SHT30;59249;59.736;30.568;2022-12-18T04:38:47;-5.46;79.08
71128;SHT30;59249;59.736;30.568;2022-12-18T04:41:18;-5.46;78.84
71128;SHT30;59249;59.736;30.568;2022-12-18T04:43:48;-5.50;78.84
71128;SHT30;59249;59.736;30.568;2022-12-18T04:46:17;-5.46;78.97
71128;SHT30;59249;59.736;30.568;2022-12-18T04:48:46;-5.57;78.77
71128;SHT30;59249;59.736;30.568;2022-12-18T04:51:16;-5.53;79.10
71128;SHT30;59249;59.736;30.568;2022-12-18T04:53:53;-5.54;79.18
71128;SHT30;59249;59.736;30.568;2022-12-18T04:56:22;-5.53;78.93
71128;SHT30;59249;59.736;30.568;2022-12-18T04:58:51;-5.48;78.97
71128;SHT30;59249;59.736;30.568;2022-12-18T05:01:20;-5.49;78.96
71128;SHT30;59249;59.736;30.568;2022-12-18T05:03:50;-5.57;79.06
71128;SHT30;59249;59.736;30.568;2022-12-18T05:06:23;-5.49;79.04
71128;SHT30;59249;59.736;30.568;2022-12-18T05:08:53;-5.49;79.09
71128;SHT30;59249;59.736;30.568;2022-12-18T05:11:22;-5.63;78.96
71128;SHT30;59249;59.736;30.568;2022-12-18T05:13:51;-5.68;78.92
71128;SHT30;59249;59.736;30.568;2022-12-18T05:16:22;-5.77;79.21
71128;SHT30;59249;59.736;30.568;2022-12-18T05:18:55;-5.77;79.44
71128;SHT30;59249;59.736;30.568;2022-12-18T05:21:25;-5.84;79.53
71128;SHT30;59249;59.736;30.568;2022-12-18T05:23:54;-5.79;79.62
71128;SHT30;59249;59.736;30.568;2022-12-18T05:26:23;-5.74;79.49
71128;SHT30;59249;59.736;30.568;2022-12-18T05:28:51;-5.77;79.45
71128;SHT30;59249;59.736;30.568;2022-12-18T05:31:20;-5.74;79.44
71128;SHT30;59249;59.736;30.568;2022-12-18T05:33:50;-5.70;79.40
71128;SHT30;59249;59.736;30.568;2022-12-18T05:36:18;-5.68;79.44
71128;SHT30;59249;59.736;30.568;2022-12-18T05:38:48;-5.62;79.44
71128;SHT30;59249;59.736;30.568;2022-12-18T05:41:17;-5.66;79.26
71128;SHT30;59249;59.736;30.568;2022-12-18T05:43:46;-5.74;79.14
71128;SHT30;59249;59.736;30.568;2022-12-18T05:46:16;-5.77;79.24
71128;SHT30;59249;59.736;30.568;2022-12-18T05:48:46;-5.77;79.26
71128;SHT30;59249;59.736;30.568;2022-12-18T05:51:19;-5.76;79.32
71128;SHT30;59249;59.736;30.568;2022-12-18T05:53:49;-5.77;79.19
71128;SHT30;59249;59.736;30.568;2022-12-18T05:56:22;-5.74;79.26
71128;SHT30;59249;59.736;30.568;2022-12-18T05:58:53;-5.80;79.35
71128;SHT30;59249;59.736;30.568;2022-12-18T06:01:24;-5.75;79.54
71128;SHT30;59249;59.736;30.568;2022-12-18T06:03:55;-5.80;79.41
71128;SHT30;59249;59.736;30.568;2022-12-18T06:06:26;-5.78;79.44
71128;SHT30;59249;59.736;30.568;2022-12-18T06:08:57;-5.77;79.50
71128;SHT30;59249;59.736;30.568;2022-12-18T06:11:27;-5.88;79.61
71128;SHT30;59249;59.736;30.568;2022-12-18T06:13:56;-5.87;79.74
71128;SHT30;59249;59.736;30.568;2022-12-18T06:16:28;-5.94;80.00
71128;SHT30;59249;59.736;30.568;2022-12-18T06:18:57;-5.95;80.21
71128;SHT30;59249;59.736;30.568;2022-12-18T06:21:27;-5.93;80.00
71128;SHT30;59249;59.736;30.568;2022-12-18T06:23:57;-6.05;80.27
71128;SHT30;59249;59.736;30.568;2022-12-18T06:26:26;-6.07;80.61
71128;SHT30;59249;59.736;30.568;2022-12-18T06:28:55;-6.03;80.71
71128;SHT30;59249;59.736;30.568;2022-12-18T06:31:25;-6.05;80.68
71128;SHT30;59249;59.736;30.568;2022-12-18T06:33:55;-6.02;80.57
71128;SHT30;59249;59.736;30.568;2022-12-18T06:36:24;-6.02;80.68
71128;SHT30;59249;59.736;30.568;2022-12-18T06:38:53;-5.98;80.41
71128;SHT30;59249;59.736;30.568;2022-12-18T06:41:23;-5.99;80.55
71128;SHT30;59249;59.736;30.568;2022-12-18T06:43:52;-5.98;80.50
71128;SHT30;59249;59.736;30.568;2022-12-18T06:46:26;-5.99;80.48
71128;SHT30;59249;59.736;30.568;2022-12-18T06:48:55;-5.99;80.53
71128;SHT30;59249;59.736;30.568;2022-12-18T06:51:24;-5.97;80.57
71128;SHT30;59249;59.736;30.568;2022-12-18T06:53:53;-5.90;80.52
71128;SHT30;59249;59.736;30.568;2022-12-18T06:56:23;-5.91;80.45
71128;SHT30;59249;59.736;30.568;2022-12-18T06:58:52;-5.98;80.49
71128;SHT30;59249;59.736;30.568;2022-12-18T07:01:22;-6.05;80.76
71128;SHT30;59249;59.736;30.568;2022-12-18T07:03:52;-6.04;80.66
71128;SHT30;59249;59.736;30.568;2022-12-18T07:06:24;-6.07;80.74
71128;SHT30;59249;59.736;30.568;2022-12-18T07:08:54;-6.00;80.95
71128;SHT30;59249;59.736;30.568;2022-12-18T07:11:24;-6.03;80.87
71128;SHT30;59249;59.736;30.568;2022-12-18T07:13:53;-6.05;80.74
71128;SHT30;59249;59.736;30.568;2022-12-18T07:16:22;-6.11;80.92
71128;SHT30;59249;59.736;30.568;2022-12-18T07:18:52;-6.14;80.94
71128;SHT30;59249;59.736;30.568;2022-12-18T07:21:24;-6.08;80.84
71128;SHT30;59249;59.736;30.568;2022-12-18T07:23:53;-6.13;80.78
71128;SHT30;59249;59.736;30.568;2022-12-18T07:26:23;-6.11;80.83
71128;SHT30;59249;59.736;30.568;2022-12-18T07:28:55;-6.17;80.74
71128;SHT30;59249;59.736;30.568;2022-12-18T07:31:26;-6.16;80.77
71128;SHT30;59249;59.736;30.568;2022-12-18T07:33:55;-6.09;80.70
71128;SHT30;59249;59.736;30.568;2022-12-18T07:36:24;-6.09;80.80
71128;SHT30;59249;59.736;30.568;2022-12-18T07:38:54;-6.02;80.68
71128;SHT30;59249;59.736;30.568;2022-12-18T07:41:24;-6.02;80.65
71128;SHT30;59249;59.736;30.568;2022-12-18T07:43:53;-5.97;80.46
71128;SHT30;59249;59.736;30.568;2022-12-18T07:46:22;-6.06;80.38
71128;SHT30;59249;59.736;30.568;2022-12-18T07:48:51;-6.06;80.58
71128;SHT30;59249;59.736;30.568;2022-12-18T07:51:20;-6.04;80.43
71128;SHT30;59249;59.736;30.568;2022-12-18T07:53:49;-6.07;80.44
71128;SHT30;59249;59.736;30.568;2022-12-18T07:56:19;-6.10;80.47
71128;SHT30;59249;59.736;30.568;2022-12-18T07:58:56;-6.16;80.59
71128;SHT30;59249;59.736;30.568;2022-12-18T08:01:34;-6.09;80.65
71128;SHT30;59249;59.736;30.568;2022-12-18T08:04:04;-6.16;80.57
71128;SHT30;59249;59.736;30.568;2022-12-18T08:06:32;-6.12;80.56
71128;SHT30;59249;59.736;30.568;2022-12-18T08:09:01;-6.09;80.58
71128;SHT30;59249;59.736;30.568;2022-12-18T08:11:30;-6.05;80.65
71128;SHT30;59249;59.736;30.568;2022-12-18T08:14:01;-6.07;80.43
71128;SHT30;59249;59.736;30.568;2022-12-18T08:16:31;-6.11;80.34
71128;SHT30;59249;59.736;30.568;2022-12-18T08:19:00;-6.07;80.57
71128;SHT30;59249;59.736;30.568;2022-12-18T08:21:30;-6.11;80.37
71128;SHT30;59249;59.736;30.568;2022-12-18T08:24:01;-6.14;80.21
71128;SHT30;59249;59.736;30.568;2022-12-18T08:26:31;-6.25;80.39
71128;SHT30;59249;59.736;30.568;2022-12-18T08:29:01;-6.30;80.40
71128;SHT30;59249;59.736;30.568;2022-12-18T08:31:30;-6.30;80.50
71128;SHT30;59249;59.736;30.568;2022-12-18T08:34:00;-6.28;80.59
71128;SHT30;59249;59.736;30.568;2022-12-18T08:36:29;-6.30;80.54
71128;SHT30;59249;59.736;30.568;2022-12-18T08:38:57;-6.38;80.57
71128;SHT30;59249;59.736;30.568;2022-12-18T08:41:26;-6.37;80.59
71128;SHT30;59249;59.736;30.568;2022-12-18T08:43:55;-6.26;80.69
71128;SHT30;59249;59.736;30.568;2022-12-18T08:46:43;-6.17;80.40
71128;SHT30;59249;59.736;30.568;2022-12-18T08:49:12;-6.18;80.38
71128;SHT30;59249;59.736;30.568;2022-12-18T08:51:41;-6.17;80.40
71128;SHT30;59249;59.736;30.568;2022-12-18T08:54:12;-6.11;80.36
71128;SHT30;59249;59.736;30.568;2022-12-18T08:56:41;-6.14;80.22
71128;SHT30;59249;59.736;30.568;2022-12-18T08:59:10;-6.16;80.14
71128;SHT30;59249;59.736;30.568;2022-12-18T09:01:47;-6.21;80.10
71128;SHT30;59249;59.736;30.568;2022-12-18T09:04:16;-6.26;80.17
71128;SHT30;59249;59.736;30.568;2022-12-18T09:06:45;-6.26;80.46
71128;SHT30;59249;59.736;30.568;2022-12-18T09:09:13;-6.21;80.53
71128;SHT30;59249;59.736;30.568;2022-12-18T09:11:42;-6.07;80.48
71128;SHT30;59249;59.736;30.568;2022-12-18T09:14:11;-6.06;80.07
71128;SHT30;59249;59.736;30.568;2022-12-18T09:16:40;-6.01;79.90
71128;SHT30;59249;59.736;30.568;2022-12-18T09:19:12;-5.99;79.89
71128;SHT30;59249;59.736;30.568;2022-12-18T09:21:42;-6.02;79.82
71128;SHT30;59249;59.736;30.568;2022-12-18T09:24:24;-5.99;79.84
71128;SHT30;59249;59.736;30.568;2022-12-18T09:26:55;-5.95;79.62
71128;SHT30;59249;59.736;30.568;2022-12-18T09:29:24;-5.97;79.45
71128;SHT30;59249;59.736;30.568;2022-12-18T09:31:53;-5.93;79.53
71128;SHT30;59249;59.736;30.568;2022-12-18T09:34:23;-6.05;79.31
71128;SHT30;59249;59.736;30.568;2022-12-18T09:36:52;-5.92;79.44
71128;SHT30;59249;59.736;30.568;2022-12-18T09:39:21;-5.89;79.26
71128;SHT30;59249;59.736;30.568;2022-12-18T09:41:52;-5.86;79.18
71128;SHT30;59249;59.736;30.568;2022-12-18T09:44:26;-5.82;79.26
71128;SHT30;59249;59.736;30.568;2022-12-18T09:47:08;-5.92;79.08
71128;SHT30;59249;59.736;30.568;2022-12-18T09:49:43;-5.83;79.14
71128;SHT30;59249;59.736;30.568;2022-12-18T09:52:19;-5.88;79.20
71128;SHT30;59249;59.736;30.568;2022-12-18T09:54:55;-5.82;79.28
71128;SHT30;59249;59.736;30.568;2022-12-18T09:57:26;-5.90;79.11
71128;SHT30;59249;59.736;30.568;2022-12-18T10:00:02;-5.91;79.04
71128;SHT30;59249;59.736;30.568;2022-12-18T10:02:38;-5.86;78.99
71128;SHT30;59249;59.736;30.568;2022-12-18T10:05:13;-5.78;79.10
71128;SHT30;59249;59.736;30.568;2022-12-18T10:07:55;-5.74;78.88
71128;SHT30;59249;59.736;30.568;2022-12-18T10:10:37;-5.70;78.89
71128;SHT30;59249;59.736;30.568;2022-12-18T10:13:19;-5.73;78.89
71128;SHT30;59249;59.736;30.568;2022-12-18T10:16:03;-5.63;78.94
71128;SHT30;59249;59.736;30.568;2022-12-18T10:19:01;-5.63;78.65
71128;SHT30;59249;59.736;30.568;2022-12-18T10:21:42;-5.50;78.83
71128;SHT30;59249;59.736;30.568;2022-12-18T10:24:23;-5.51;78.40
71128;SHT30;59249;59.736;30.568;2022-12-18T10:26:59;-5.53;78.43
71128;SHT30;59249;59.736;30.568;2022-12-18T10:29:33;-5.56;78.40
71128;SHT30;59249;59.736;30.568;2022-12-18T10:32:02;-5.59;78.33
71128;SHT30;59249;59.736;30.568;2022-12-18T10:34:30;-5.58;78.41
71128;SHT30;59249;59.736;30.568;2022-12-18T10:37:06;-5.53;78.49
71128;SHT30;59249;59.736;30.568;2022-12-18T10:39:40;-5.50;78.33
71128;SHT30;59249;59.736;30.568;2022-12-18T10:42:15;-5.51;78.24
71128;SHT30;59249;59.736;30.568;2022-12-18T10:44:45;-5.50;78.04
71128;SHT30;59249;59.736;30.568;2022-12-18T10:47:18;-5.44;78.21
71128;SHT30;59249;59.736;30.568;2022-12-18T10:49:52;-5.38;78.17
71128;SHT30;59249;59.736;30.568;2022-12-18T10:52:25;-5.40;78.06
71128;SHT30;59249;59.736;30.568;2022-12-18T10:55:02;-5.28;78.20
71128;SHT30;59249;59.736;30.568;2022-12-18T10:57:35;-5.35;77.85
71128;SHT30;59249;59.736;30.568;2022-12-18T11:00:33;-5.44;78.19
71128;SHT30;59249;59.736;30.568;2022-12-18T11:03:34;-5.40;78.47
71128;SHT30;59249;59.736;30.568;2022-12-18T11:06:09;-5.33;78.41
71128;SHT30;59249;59.736;30.568;2022-12-18T11:08:41;-5.30;78.36
71128;SHT30;59249;59.736;30.568;2022-12-18T11:11:22;-5.30;77.96
71128;SHT30;59249;59.736;30.568;2022-12-18T11:14:05;-5.37;78.03
71128;SHT30;59249;59.736;30.568;2022-12-18T11:16:43;-5.43;77.94
71128;SHT30;59249;59.736;30.568;2022-12-18T11:19:37;-5.42;78.41
71128;SHT30;59249;59.736;30.568;2022-12-18T11:22:20;-5.47;78.24
71128;SHT30;59249;59.736;30.568;2022-12-18T11:24:56;-5.39;78.43
71128;SHT30;59249;59.736;30.568;2022-12-18T11:27:49;-5.45;78.37
71128;SHT30;59249;59.736;30.568;2022-12-18T11:30:27;-5.43;78.50
71128;SHT30;59249;59.736;30.568;2022-12-18T11:33:03;-5.51;78.55
71128;SHT30;59249;59.736;30.568;2022-12-18T11:35:43;-5.51;78.66
71128;SHT30;59249;59.736;30.568;2022-12-18T11:38:22;-5.57;78.90
71128;SHT30;59249;59.736;30.568;2022-12-18T11:40:58;-5.56;78.99
71128;SHT30;59249;59.736;30.568;2022-12-18T11:43:33;-5.55;79.19
71128;SHT30;59249;59.736;30.568;2022-12-18T11:46:10;-5.53;79.07
71128;SHT30;59249;59.736;30.568;2022-12-18T11:48:53;-5.53;79.13
71128;SHT30;59249;59.736;30.568;2022-12-18T11:51:34;-5.57;79.26
71128;SHT30;59249;59.736;30.568;2022-12-18T11:54:14;-5.55;79.86
71128;SHT30;59249;59.736;30.568;2022-12-18T11:56:49;-5.46;79.78
71128;SHT30;59249;59.736;30.568;2022-12-18T11:59:31;-5.41;79.59
71128;SHT30;59249;59.736;30.568;2022-12-18T12:02:21;-5.44;79.54
71128;SHT30;59249;59.736;30.568;2022-12-18T12:05:18;-5.51;79.74
71128;SHT30;59249;59.736;30.568;2022-12-18T12:07:55;-5.46;79.89
71128;SHT30;59249;59.736;30.568;2022-12-18T12:10:45;-5.50;80.01
71128;SHT30;59249;59.736;30.568;2022-12-18T12:13:29;-5.42;80.14
71128;SHT30;59249;59.736;30.568;2022-12-18T12:16:15;-5.48;80.11
71128;SHT30;59249;59.736;30.568;2022-12-18T12:19:10;-5.44;80.27
71128;SHT30;59249;59.736;30.568;2022-12-18T12:21:53;-5.42;80.23
71128;SHT30;59249;59.736;30.568;2022-12-18T12:24:42;-5.48;80.50
71128;SHT30;59249;59.736;30.568;2022-12-18T12:27:25;-5.48;80.58
71128;SHT30;59249;59.736;30.568;2022-12-18T12:30:16;-5.54;80.85
71128;SHT30;59249;59.736;30.568;2022-12-18T12:33:16;-5.52;80.68
71128;SHT30;59249;59.736;30.568;2022-12-18T12:36:02;-5.53;80.82
71128;SHT30;59249;59.736;30.568;2022-12-18T12:38:40;-5.54;80.85
71128;SHT30;59249;59.736;30.568;2022-12-18T12:41:23;-5.55;80.87
71128;SHT30;59249;59.736;30.568;2022-12-18T12:44:19;-5.61;80.81
71128;SHT30;59249;59.736;30.568;2022-12-18T12:46:56;-5.66;80.85
71128;SHT30;59249;59.736;30.568;2022-12-18T12:49:31;-5.67;81.10
71128;SHT30;59249;59.736;30.568;2022-12-18T12:52:15;-5.70;80.96
71128;SHT30;59249;59.736;30.568;2022-12-18T12:54:46;-5.77;81.05
71128;SHT30;59249;59.736;30.568;2022-12-18T12:57:21;-5.78;80.97
71128;SHT30;59249;59.736;30.568;2022-12-18T13:00:01;-5.82;81.13
71128;SHT30;59249;59.736;30.568;2022-12-18T13:02:39;-5.91;81.13
71128;SHT30;59249;59.736;30.568;2022-12-18T13:05:21;-5.96;81.14
71128;SHT30;59249;59.736;30.568;2022-12-18T13:07:59;-6.09;81.19
71128;SHT30;59249;59.736;30.568;2022-12-18T13:10:35;-6.15;81.32
71128;SHT30;59249;59.736;30.568;2022-12-18T13:13:08;-6.23;81.38
71128;SHT30;59249;59.736;30.568;2022-12-18T13:15:40;-6.33;81.40
71128;SHT30;59249;59.736;30.568;2022-12-18T13:18:23;-6.40;81.56
71128;SHT30;59249;59.736;30.568;2022-12-18T13:21:10;-6.44;81.56
71128;SHT30;59249;59.736;30.568;2022-12-18T13:23:42;-6.51;81.61
71128;SHT30;59249;59.736;30.568;2022-12-18T13:26:32;-6.52;81.41
71128;SHT30;59249;59.736;30.568;2022-12-18T13:29:03;-6.63;81.48
71128;SHT30;59249;59.736;30.568;2022-12-18T13:32:01;-6.72;81.59
71128;SHT30;59249;59.736;30.568;2022-12-18T13:34:30;-6.75;81.67
71128;SHT30;59249;59.736;30.568;2022-12-18T13:37:39;-6.78;81.72
71128;SHT30;59249;59.736;30.568;2022-12-18T13:40:57;-6.86;81.77
71128;SHT30;59249;59.736;30.568;2022-12-18T13:43:49;-6.95;81.66
71128;SHT30;59249;59.736;30.568;2022-12-18T13:46:27;-7.02;81.63
71128;SHT30;59249;59.736;30.568;2022-12-18T13:49:03;-6.99;81.67
71128;SHT30;59249;59.736;30.568;2022-12-18T13:51:35;-6.91;81.83
71128;SHT30;59249;59.736;30.568;2022-12-18T13:54:19;-6.86;81.79
71128;SHT30;59249;59.736;30.568;2022-12-18T13:56:49;-6.76;81.91
71128;SHT30;59249;59.736;30.568;2022-12-18T13:59:20;-6.64;81.76
71128;SHT30;59249;59.736;30.568;2022-12-18T14:01:55;-6.65;81.61
71128;SHT30;59249;59.736;30.568;2022-12-18T14:04:27;-6.51;81.62
71128;SHT30;59249;59.736;30.568;2022-12-18T14:07:03;-6.39;81.75
71128;SHT30;59249;59.736;30.568;2022-12-18T14:09:39;-6.34;81.89
71128;SHT30;59249;59.736;30.568;2022-12-18T14:12:16;-6.28;82.31
71128;SHT30;59249;59.736;30.568;2022-12-18T14:15:06;-6.12;82.50
71128;SHT30;59249;59.736;30.568;2022-12-18T14:17:50;-6.06;82.70
71128;SHT30;59249;59.736;30.568;2022-12-18T14:20:20;-5.91;82.56
71128;SHT30;59249;59.736;30.568;2022-12-18T14:22:49;-5.86;82.61
71128;SHT30;59249;59.736;30.568;2022-12-18T14:25:22;-5.74;82.73
71128;SHT30;59249;59.736;30.568;2022-12-18T14:28:14;-5.60;82.58
71128;SHT30;59249;59.736;30.568;2022-12-18T14:30:45;-5.60;82.54
71128;SHT30;59249;59.736;30.568;2022-12-18T14:33:22;-5.53;82.54
71128;SHT30;59249;59.736;30.568;2022-12-18T14:35:58;-5.47;82.67
71128;SHT30;59249;59.736;30.568;2022-12-18T14:38:30;-5.38;82.40
71128;SHT30;59249;59.736;30.568;2022-12-18T14:41:02;-5.41;82.44
71128;SHT30;59249;59.736;30.568;2022-12-18T14:43:34;-5.31;82.49
71128;SHT30;59249;59.736;30.568;2022-12-18T14:46:06;-5.36;82.65
71128;SHT30;59249;59.736;30.568;2022-12-18T14:48:56;-5.30;82.68
71128;SHT30;59249;59.736;30.568;2022-12-18T14:51:27;-5.23;82.60
71128;SHT30;59249;59.736;30.568;2022-12-18T14:53:58;-5.14;82.74
71128;SHT30;59249;59.736;30.568;2022-12-18T14:56:31;-5.14;82.87
71128;SHT30;59249;59.736;30.568;2022-12-18T14:59:04;-5.04;82.81
71128;SHT30;59249;59.736;30.568;2022-12-18T15:01:37;-5.00;82.79
71128;SHT30;59249;59.736;30.568;2022-12-18T15:04:26;-4.98;82.89
71128;SHT30;59249;59.736;30.568;2022-12-18T15:07:16;-4.98;82.82
71128;SHT30;59249;59.736;30.568;2022-12-18T15:10:04;-4.92;82.80
71128;SHT30;59249;59.736;30.568;2022-12-18T15:12:41;-4.81;82.89
71128;SHT30;59249;59.736;30.568;2022-12-18T15:15:48;-4.77;82.82
71128;SHT30;59249;59.736;30.568;2022-12-18T15:18:19;-4.72;82.67
71128;SHT30;59249;59.736;30.568;2022-12-18T15:20:52;-4.81;82.66
71128;SHT30;59249;59.736;30.568;2022-12-18T15:23:25;-4.76;82.74
71128;SHT30;59249;59.736;30.568;2022-12-18T15:25:57;-4.71;82.97
71128;SHT30;59249;59.736;30.568;2022-12-18T15:28:32;-4.66;82.76
71128;SHT30;59249;59.736;30.568;2022-12-18T15:31:06;-4.60;82.45
71128;SHT30;59249;59.736;30.568;2022-12-18T15:33:37;-4.67;82.20
71128;SHT30;59249;59.736;30.568;2022-12-18T15:36:11;-4.69;82.20
71128;SHT30;59249;59.736;30.568;2022-12-18T15:38:41;-4.68;82.08
71128;SHT30;59249;59.736;30.568;2022-12-18T15:41:13;-4.76;82.24
71128;SHT30;59249;59.736;30.568;2022-12-18T15:43:51;-4.71;82.34
71128;SHT30;59249;59.736;30.568;2022-12-18T15:46:21;-4.73;82.38
71128;SHT30;59249;59.736;30.568;2022-12-18T15:48:53;-4.58;82.60
71128;SHT30;59249;59.736;30.568;2022-12-18T15:51:33;-4.49;82.49
71128;SHT30;59249;59.736;30.568;2022-12-18T15:54:05;-4.49;82.49
71128;SHT30;59249;59.736;30.568;2022-12-18T15:56:35;-4.49;82.55
71128;SHT30;59249;59.736;30.568;2022-12-18T15:59:21;-4.53;82.34
71128;SHT30;59249;59.736;30.568;2022-12-18T16:01:51;-4.53;82.27
71128;SHT30;59249;59.736;30.568;2022-12-18T16:04:22;-4.52;82.10